Terminal Aerodrome Forecast
Issued by NWS

Home | Current Version | Previous Version | Text Only | Print | Product List | Glossary On
Versions: 1 2 3 4 5 6 7 8 9 10 11 12 13 14 15 16 17
000
FTUS43 KGRB 240900 AAA
TAFCWA
TAF AMD
KCWA 240904Z 2409/2506 12006KT P6SM SCT030 OVC050
     FM241000 12009KT 6SM -SHRA SCT025 OVC035 WS020/14030KT
     FM241400 11016G25KT 3SM -RA BR BKN012 OVC020 WS020/14040KT
     FM241900 12012G20KT 2SM -RA BR BKN007 OVC012 WS020/15045KT
     FM250100 16007KT 3SM -RA BR BKN007 OVC012 WS020/17045KT
      AMD LTD TO CLD VIS AND WIND TIL 241200=

USA.gov is the U.S. government's official web portal to all federal, state and local government web resources and services.